Time;durP1;ratioP1;P1;durP2;ratioP2;P2;SDS_P1;SDS_P2;PMS_P1;PMS_P2;Temp;Humidity;BMP_temperature;BMP_pressure;BME280_temperature;BME280_humidity;BME280_pressure;Samples;Min_cycle;Max_cycle;Signal;HPM_P1;HPM_P2
2022/07/26 00:01:23;;;;;;;3.80;2.80;;;;;;;21.53;100.00;98210.34;4366390;32;20454;-73
2022/07/26 00:03:50;;;;;;;8.82;2.70;;;;;;;21.38;100.00;98203.56;4370763;32;20103;-73
2022/07/26 00:06:16;;;;;;;4.65;3.03;;;;;;;21.10;100.00;98128.75;4370726;32;20115;-73
2022/07/26 00:08:43;;;;;;;8.98;2.70;;;;;;;21.50;100.00;98188.31;4393654;32;20103;-73
2022/07/26 00:11:10;;;;;;;10.93;3.12;;;;;;;21.24;100.00;98142.88;4398391;32;20389;-74
2022/07/26 00:13:36;;;;;;;5.45;2.45;;;;;;;21.11;100.00;98155.78;4384398;32;20077;-72
2022/07/26 00:16:03;;;;;;;3.08;2.80;;;;;;;21.44;100.00;98186.91;4383786;32;20067;-72
2022/07/26 00:18:30;;;;;;;5.57;2.97;;;;;;;21.08;100.00;98156.44;4377048;32;20043;-72
2022/07/26 00:20:56;;;;;;;22.17;3.03;;;;;;;21.21;100.00;98176.41;4381770;32;20066;-73
2022/07/26 00:24:00;;;;;;;6.20;2.55;;;;;;;21.19;100.00;98173.22;4384330;32;20108;-73
2022/07/26 00:26:27;;;;;;;3.58;2.78;;;;;;;21.19;100.00;98165.00;4360176;32;20379;-74
2022/07/26 00:29:02;;;;;;;2.67;2.45;;;;;;;21.33;100.00;98157.25;4359863;32;20421;-74
2022/07/26 00:31:30;;;;;;;6.03;2.17;;;;;;;21.09;100.00;98129.88;4356346;32;20439;-73
2022/07/26 00:33:56;;;;;;;9.95;3.03;;;;;;;21.37;100.00;98163.63;4355782;32;20027;-72
2022/07/26 00:36:23;;;;;;;9.43;3.20;;;;;;;21.31;100.00;98169.69;4350935;32;20067;-72
2022/07/26 00:38:50;;;;;;;5.03;3.03;;;;;;;21.31;100.00;98167.75;4339355;33;20433;-74
2022/07/26 00:41:17;;;;;;;15.10;3.00;;;;;;;21.15;100.00;98145.72;4332322;33;20066;-75
2022/07/26 00:43:57;;;;;;;9.13;3.20;;;;;;;21.55;100.00;98174.38;4317042;33;20070;-72
2022/07/26 00:46:24;;;;;;;9.55;2.85;;;;;;;20.93;100.00;98127.78;4319740;33;20044;-73
2022/07/26 00:48:50;;;;;;;9.75;3.65;;;;;;;21.45;100.00;98180.31;4317632;33;20051;-76
2022/07/26 00:51:17;;;;;;;3.55;2.40;;;;;;;21.27;100.00;98177.78;4325476;33;20072;-73
2022/07/26 00:53:45;;;;;;;4.97;2.65;;;;;;;21.26;100.00;98167.97;4333241;33;20054;-72
2022/07/26 00:56:13;;;;;;;9.55;2.92;;;;;;;21.01;100.00;98140.59;4287265;33;20060;-74
2022/07/26 00:58:41;;;;;;;8.48;2.75;;;;;;;21.02;100.00;98153.12;4287901;33;20047;-72
2022/07/26 01:01:08;;;;;;;6.05;3.45;;;;;;;21.08;100.00;98139.22;4270394;33;20413;-74
2022/07/26 01:03:34;;;;;;;8.60;3.45;;;;;;;20.90;100.00;98117.56;4286445;33;20118;-73
2022/07/26 01:06:00;;;;;;;7.37;4.00;;;;;;;20.94;100.00;98137.59;4290051;33;20072;-73
2022/07/26 01:08:27;;;;;;;6.20;2.92;;;;;;;21.19;100.00;98175.97;4296197;33;20432;-72
2022/07/26 01:10:53;;;;;;;6.97;3.08;;;;;;;21.15;100.00;98175.03;4299267;33;20037;-75
2022/07/26 01:13:21;;;;;;;7.50;2.85;;;;;;;20.88;100.00;98151.84;4309526;33;20096;-73
2022/07/26 01:15:48;;;;;;;6.80;3.10;;;;;;;20.73;100.00;98128.69;4322054;33;20443;-73
2022/07/26 01:18:15;;;;;;;7.60;3.33;;;;;;;20.90;100.00;98147.66;4324793;33;20025;-73
2022/07/26 01:20:43;;;;;;;2.87;2.65;;;;;;;20.86;100.00;98160.41;4324169;33;20382;-76
2022/07/26 01:23:11;;;;;;;5.55;3.50;;;;;;;20.76;100.00;98122.53;4324125;33;20044;-73
2022/07/26 01:25:38;;;;;;;8.20;2.95;;;;;;;20.86;100.00;98142.03;4324779;33;20070;-74
2022/07/26 01:28:04;;;;;;;9.35;3.33;;;;;;;21.12;100.00;98151.09;4359925;32;20028;-73
2022/07/26 01:30:31;;;;;;;5.20;2.72;;;;;;;20.91;100.00;98143.75;4369626;32;20393;-74
2022/07/26 01:32:57;;;;;;;4.80;3.22;;;;;;;20.73;100.00;98106.81;4404715;32;20034;-75
2022/07/26 01:35:24;;;;;;;3.55;3.08;;;;;;;20.97;100.00;98142.41;4381703;32;20430;-74
2022/07/26 01:37:50;;;;;;;6.87;3.30;;;;;;;20.62;100.00;98109.94;4354234;32;20122;-73
2022/07/26 01:40:16;;;;;;;13.55;3.37;;;;;;;20.67;100.00;98131.63;4354200;32;20040;-73
2022/07/26 01:42:43;;;;;;;3.22;2.97;;;;;;;20.69;100.00;98139.50;4354386;32;20074;-73
2022/07/26 01:45:10;;;;;;;4.35;3.00;;;;;;;20.64;100.00;98110.41;4352657;32;20061;-73
2022/07/26 01:47:38;;;;;;;6.32;3.28;;;;;;;20.70;100.00;98132.09;4354365;32;20815;-73
2022/07/26 01:50:06;;;;;;;6.00;2.97;;;;;;;20.67;100.00;98123.41;4354499;32;20046;-74
2022/07/26 01:52:34;;;;;;;3.80;3.00;;;;;;;20.55;100.00;98115.19;4354058;32;20079;-73
2022/07/26 01:55:00;;;;;;;6.15;2.92;;;;;;;20.68;100.00;98113.31;4352503;32;20377;-74
2022/07/26 01:57:26;;;;;;;6.47;3.05;;;;;;;20.73;100.00;98113.06;4354239;32;20048;-72
2022/07/26 01:59:54;;;;;;;8.00;3.45;;;;;;;20.85;100.00;98109.53;4354328;33;20071;-73
2022/07/26 02:02:20;;;;;;;3.70;2.78;;;;;;;20.55;100.00;98106.97;4353633;33;20099;-72
2022/07/26 02:05:00;;;;;;;4.57;3.25;;;;;;;20.57;100.00;98079.28;4353389;33;20065;-75
2022/07/26 02:07:29;;;;;;;7.87;2.78;;;;;;;20.36;100.00;98065.66;4367240;32;20032;-72
2022/07/26 02:09:56;;;;;;;5.57;3.05;;;;;;;20.26;100.00;98056.78;4412024;32;20042;-72
2022/07/26 02:12:23;;;;;;;11.10;3.10;;;;;;;20.55;100.00;98095.22;4416538;32;20123;-73
2022/07/26 02:14:50;;;;;;;5.55;3.65;;;;;;;20.65;100.00;98079.22;4415483;32;20064;-74
2022/07/26 02:17:17;;;;;;;5.05;3.10;;;;;;;20.61;100.00;98094.66;4415580;32;20031;-72
2022/07/26 02:19:43;;;;;;;3.90;3.03;;;;;;;20.37;100.00;98059.06;4415993;32;20072;-74
2022/07/26 02:22:09;;;;;;;4.20;3.45;;;;;;;20.15;100.00;98058.31;4416011;32;20079;-74
2022/07/26 02:24:36;;;;;;;16.05;3.83;;;;;;;20.23;100.00;98054.72;4416274;32;20068;-74
2022/07/26 02:27:03;;;;;;;3.60;3.22;;;;;;;20.18;100.00;98043.97;4414935;32;20100;-76
2022/07/26 02:29:30;;;;;;;5.10;2.90;;;;;;;20.46;100.00;98076.97;4414812;32;20062;-73
2022/07/26 02:31:58;;;;;;;4.50;3.10;;;;;;;20.62;100.00;98079.84;4415522;32;20042;-72
2022/07/26 02:34:25;;;;;;;4.93;3.22;;;;;;;20.20;100.00;98029.97;4416306;32;20027;-73
2022/07/26 02:36:51;;;;;;;3.42;3.15;;;;;;;20.30;100.00;98068.62;4416555;32;20058;-72
2022/07/26 02:39:18;;;;;;;10.43;3.47;;;;;;;20.23;100.00;98068.38;4412432;32;20038;-73
2022/07/26 02:41:44;;;;;;;7.90;3.08;;;;;;;20.50;100.00;98093.50;4418522;32;20074;-73
2022/07/26 02:44:11;;;;;;;3.42;3.17;;;;;;;20.39;100.00;98048.59;4418950;32;20060;-73
2022/07/26 02:46:37;;;;;;;4.18;2.85;;;;;;;20.20;100.00;98058.13;4418875;32;20038;-73
2022/07/26 02:49:04;;;;;;;5.55;2.95;;;;;;;19.95;100.00;98008.84;4419115;32;20353;-76
2022/07/26 02:51:30;;;;;;;7.90;3.22;;;;;;;20.42;100.00;98047.91;4417348;32;20042;-73
2022/07/26 02:53:57;;;;;;;3.72;3.15;;;;;;;20.56;100.00;98072.22;4419106;32;20116;-73
2022/07/26 02:56:23;;;;;;;3.35;3.03;;;;;;;20.53;100.00;98065.47;4418759;32;20075;-73
2022/07/26 02:58:49;;;;;;;6.05;2.97;;;;;;;20.55;100.00;98038.62;4419186;32;20072;-74
2022/07/26 03:01:16;;;;;;;7.68;3.20;;;;;;;20.60;100.00;98027.44;4418381;32;20034;-77
2022/07/26 03:03:42;;;;;;;3.83;3.05;;;;;;;20.47;100.00;98025.81;4384620;32;20020;-73
2022/07/26 03:06:08;;;;;;;3.42;3.12;;;;;;;20.83;100.00;98046.97;4386301;32;20043;-72
2022/07/26 03:08:35;;;;;;;5.05;2.25;;;;;;;20.86;100.00;98061.91;4386236;32;20440;-72
2022/07/26 03:11:01;;;;;;;11.40;3.10;;;;;;;20.74;100.00;98026.34;4386455;32;20394;-73
2022/07/26 03:13:27;;;;;;;4.97;3.15;;;;;;;20.90;100.00;98042.87;4384889;32;20104;-73
2022/07/26 03:15:54;;;;;;;3.28;2.95;;;;;;;21.00;100.00;98043.22;4386016;32;20894;-72
2022/07/26 03:18:20;;;;;;;3.22;2.83;;;;;;;20.57;100.00;98016.41;4385319;32;20031;-73
2022/07/26 03:20:47;;;;;;;3.40;3.10;;;;;;;20.94;100.00;98052.00;4386520;32;20364;-73
2022/07/26 03:23:13;;;;;;;3.10;2.90;;;;;;;20.68;100.00;98034.78;4386334;32;20081;-73
2022/07/26 03:25:39;;;;;;;3.97;3.20;;;;;;;20.64;100.00;98041.25;4385067;32;20465;-75
2022/07/26 03:28:06;;;;;;;11.88;2.83;;;;;;;20.81;100.00;98016.44;4385850;32;20032;-73
2022/07/26 03:30:33;;;;;;;7.68;3.10;;;;;;;20.54;100.00;97990.53;4386420;32;20026;-73
2022/07/26 03:32:59;;;;;;;2.90;2.70;;;;;;;20.66;100.00;97993.31;4348879;32;20039;-73
2022/07/26 03:35:25;;;;;;;11.98;3.37;;;;;;;20.80;100.00;97998.41;4359386;32;20476;-76
2022/07/26 03:37:52;;;;;;;5.50;3.25;;;;;;;20.59;100.00;97979.34;4361687;32;20024;-73
2022/07/26 03:40:19;;;;;;;4.12;3.72;;;;;;;20.44;100.00;97991.00;4363478;32;20039;-73
2022/07/26 03:42:46;;;;;;;10.70;3.37;;;;;;;20.82;100.00;98017.22;4363981;32;20044;-73
2022/07/26 03:45:14;;;;;;;10.25;2.75;;;;;;;20.97;100.00;98023.97;4362741;32;20097;-74
2022/07/26 03:47:41;;;;;;;3.92;3.10;;;;;;;20.96;100.00;98022.34;4353337;32;20090;-75
2022/07/26 03:50:09;;;;;;;8.05;3.20;;;;;;;20.88;100.00;98013.13;4354662;32;20568;-74
2022/07/26 03:52:36;;;;;;;5.45;3.35;;;;;;;20.83;100.00;98018.81;4350742;32;20062;-74
2022/07/26 03:56:27;;;;;;;3.72;2.85;;;;;;;20.42;100.00;97946.78;4348709;32;20038;-73
2022/07/26 03:57:49;;;;;;;6.12;3.10;;;;;;;21.00;100.00;98013.13;4346074;32;20040;-73
2022/07/26 04:00:15;;;;;;;5.62;3.42;;;;;;;20.73;100.00;98009.13;4347485;32;20045;-73
2022/07/26 04:02:42;;;;;;;9.02;3.33;;;;;;;20.64;100.00;97957.28;4346775;32;20020;-74
2022/07/26 04:05:09;;;;;;;6.18;2.87;;;;;;;21.17;100.00;98027.69;4355565;32;20043;-74
2022/07/26 04:07:45;;;;;;;3.30;3.03;;;;;;;21.00;100.00;97991.22;4350952;32;20040;-76
2022/07/26 04:10:14;;;;;;;8.57;2.55;;;;;;;21.00;100.00;97995.91;4353063;32;20083;-73
2022/07/26 04:12:40;;;;;;;5.72;3.22;;;;;;;21.19;100.00;98030.91;4355484;32;20081;-74
2022/07/26 04:15:07;;;;;;;4.28;3.40;;;;;;;21.10;100.00;98005.59;4355921;32;20019;-73
2022/07/26 04:17:39;;;;;;;6.55;3.00;;;;;;;21.02;100.00;97983.47;4352783;32;20097;-73
2022/07/26 04:20:07;;;;;;;6.80;3.37;;;;;;;21.30;100.00;98012.84;4369739;32;20053;-73
2022/07/26 04:22:35;;;;;;;6.87;3.67;;;;;;;21.31;100.00;98022.62;4370480;32;20019;-74
2022/07/26 04:25:08;;;;;;;6.65;3.08;;;;;;;21.13;100.00;97999.44;4369370;32;20043;-75
2022/07/26 04:27:36;;;;;;;6.03;3.10;;;;;;;21.03;100.00;97996.00;4399756;32;20034;-73
2022/07/26 04:30:04;;;;;;;3.92;2.72;;;;;;;21.09;100.00;98004.78;4402803;32;20436;-73
2022/07/26 04:32:31;;;;;;;3.42;2.40;;;;;;;21.02;100.00;97997.13;4418083;32;20108;-73
2022/07/26 04:34:57;;;;;;;5.87;2.83;;;;;;;21.14;100.00;98011.94;4432792;32;20089;-73
2022/07/26 04:37:23;;;;;;;5.40;3.12;;;;;;;21.08;100.00;98002.38;4376489;32;20162;-76
2022/07/26 04:39:50;;;;;;;9.00;2.85;;;;;;;20.88;100.00;97993.97;4377468;32;20416;-74
2022/07/26 04:42:16;;;;;;;4.55;3.75;;;;;;;21.09;100.00;98028.59;4378496;32;20089;-74
2022/07/26 04:44:42;;;;;;;3.60;3.20;;;;;;;21.26;100.00;98014.66;4361094;32;20089;-74
2022/07/26 04:47:09;;;;;;;5.30;3.50;;;;;;;20.50;100.00;97954.06;4360475;32;20435;-74
2022/07/26 04:49:35;;;;;;;14.80;3.62;;;;;;;21.04;100.00;98029.63;4363744;32;20028;-76
2022/07/26 04:52:01;;;;;;;4.60;3.37;;;;;;;20.77;100.00;97998.31;4360210;32;20090;-73
2022/07/26 04:54:28;;;;;;;4.18;3.25;;;;;;;20.84;100.00;98012.22;4364353;32;20523;-73
2022/07/26 04:56:54;;;;;;;6.00;2.78;;;;;;;21.11;100.00;98012.63;4363038;32;20078;-73
2022/07/26 04:59:21;;;;;;;9.35;3.10;;;;;;;21.37;100.00;98058.81;4362920;32;20019;-73
2022/07/26 05:01:47;;;;;;;5.65;3.35;;;;;;;21.22;100.00;98008.28;4360606;32;20047;-74
2022/07/26 05:04:13;;;;;;;8.35;3.15;;;;;;;21.63;100.00;98077.59;4332251;33;20416;-74
2022/07/26 05:06:40;;;;;;;11.23;3.22;;;;;;;21.51;100.00;98061.22;4334228;33;20036;-74
2022/07/26 05:09:06;;;;;;;10.98;3.40;;;;;;;21.22;100.00;98046.59;4331714;33;20052;-74
2022/07/26 05:11:33;;;;;;;11.35;3.78;;;;;;;21.54;100.00;98085.12;4333671;33;20099;-73
2022/07/26 05:13:59;;;;;;;8.63;3.53;;;;;;;21.73;100.00;98071.66;4332371;33;20083;-76
2022/07/26 05:16:25;;;;;;;8.63;4.00;;;;;;;21.63;100.00;98065.84;4391053;32;20062;-73
2022/07/26 05:18:52;;;;;;;5.60;2.65;;;;;;;21.49;100.00;98044.31;4384768;32;20030;-72
2022/07/26 05:21:18;;;;;;;8.88;3.22;;;;;;;21.41;100.00;98044.09;4384735;32;20026;-73
2022/07/26 05:23:45;;;;;;;9.57;3.92;;;;;;;21.85;100.00;98072.75;4382962;32;20101;-73
2022/07/26 05:26:12;;;;;;;11.48;4.68;;;;;;;22.17;100.00;98083.81;4382661;32;20365;-73
2022/07/26 05:28:38;;;;;;;20.35;3.30;;;;;;;22.07;100.00;98083.16;4384682;32;20027;-73
2022/07/26 05:31:05;;;;;;;6.45;3.20;;;;;;;21.88;100.00;98056.41;4383086;32;20452;-73
2022/07/26 05:33:31;;;;;;;12.98;3.30;;;;;;;22.08;100.00;98057.34;4347389;32;20066;-73
2022/07/26 05:35:57;;;;;;;4.75;3.25;;;;;;;22.39;100.00;98096.97;4356515;32;20041;-72
2022/07/26 05:38:24;;;;;;;13.68;3.53;;;;;;;22.35;100.00;98079.63;4361884;32;20060;-72
2022/07/26 05:40:51;;;;;;;4.12;3.33;;;;;;;22.36;100.00;98097.69;4362567;32;20053;-72
2022/07/26 05:43:17;;;;;;;15.38;3.60;;;;;;;22.43;100.00;98092.41;4361275;32;20024;-72
2022/07/26 05:45:44;;;;;;;15.10;4.20;;;;;;;22.37;100.00;98087.50;4361260;32;20069;-72
2022/07/26 05:48:10;;;;;;;9.13;3.12;;;;;;;22.56;100.00;98100.53;4360933;32;20076;-75
2022/07/26 05:50:36;;;;;;;16.95;4.35;;;;;;;22.23;100.00;98065.97;4330482;33;20388;-73
2022/07/26 05:53:03;;;;;;;14.13;3.40;;;;;;;22.29;100.00;98086.50;4332445;33;20044;-73
2022/07/26 05:55:29;;;;;;;11.45;3.90;;;;;;;22.26;100.00;98103.66;4331789;33;20032;-73
2022/07/26 05:57:56;;;;;;;10.98;3.47;;;;;;;21.98;100.00;98044.16;4299701;33;20025;-74
2022/07/26 06:00:22;;;;;;;10.50;3.53;;;;;;;22.59;100.00;98138.25;4288886;33;20075;-73
2022/07/26 06:02:49;;;;;;;6.95;3.30;;;;;;;22.40;100.00;98131.50;4287817;33;20037;-73
2022/07/26 06:05:15;;;;;;;8.88;3.03;;;;;;;22.64;100.00;98116.03;4315164;33;20044;-74
2022/07/26 06:07:41;;;;;;;4.75;3.50;;;;;;;22.55;100.00;98126.41;4324708;33;20395;-74
2022/07/26 06:10:08;;;;;;;7.72;3.33;;;;;;;22.83;100.00;98132.63;4322428;33;20032;-73
2022/07/26 06:12:34;;;;;;;8.23;3.25;;;;;;;22.96;100.00;98113.31;4324785;33;20033;-72
2022/07/26 06:15:01;;;;;;;17.30;3.35;;;;;;;23.16;100.00;98114.22;4324738;33;20056;-73
2022/07/26 06:17:28;;;;;;;18.70;4.32;;;;;;;23.29;100.00;98104.72;4311453;33;20059;-72
2022/07/26 06:19:56;;;;;;;6.45;3.72;;;;;;;23.13;100.00;98074.53;4296514;33;20025;-73
2022/07/26 06:22:22;;;;;;;12.52;3.28;;;;;;;23.10;100.00;98053.28;4309734;33;20118;-73
2022/07/26 06:24:49;;;;;;;3.97;3.22;;;;;;;23.55;100.00;98106.91;4297412;33;20034;-73
2022/07/26 06:27:15;;;;;;;7.78;3.58;;;;;;;23.53;100.00;98100.97;4297431;33;20026;-74
2022/07/26 06:29:42;;;;;;;13.27;3.00;;;;;;;23.43;100.00;98074.06;4328523;33;20065;-74
2022/07/26 06:32:08;;;;;;;5.68;3.80;;;;;;;23.50;100.00;98089.88;4342977;32;20044;-73
2022/07/26 06:34:35;;;;;;;8.50;3.30;;;;;;;23.64;100.00;98097.66;4346792;32;20020;-73
2022/07/26 06:37:01;;;;;;;8.65;3.22;;;;;;;23.61;100.00;98087.37;4318484;33;20066;-73
2022/07/26 06:39:29;;;;;;;5.22;3.33;;;;;;;23.44;100.00;98067.41;4303786;33;20502;-73
2022/07/26 06:41:55;;;;;;;7.72;2.95;;;;;;;23.46;100.00;98073.34;4304122;33;20402;-73
2022/07/26 06:44:22;;;;;;;6.62;3.22;;;;;;;23.34;100.00;98082.50;4305019;33;20488;-74
2022/07/26 06:46:48;;;;;;;6.12;3.03;;;;;;;23.41;100.00;98109.31;4304201;33;20025;-74
2022/07/26 06:49:14;;;;;;;8.60;3.20;;;;;;;23.34;100.00;98104.47;4322633;33;20029;-75
2022/07/26 06:51:41;;;;;;;4.57;2.62;;;;;;;23.11;100.00;98111.75;4323055;33;20044;-74
2022/07/26 06:54:07;;;;;;;12.52;2.70;;;;;;;22.83;100.00;98083.22;4310160;33;20097;-73
2022/07/26 06:56:34;;;;;;;4.30;2.62;;;;;;;23.18;100.00;98137.44;4298011;33;20115;-73
2022/07/26 06:59:00;;;;;;;9.45;2.97;;;;;;;23.26;100.00;98149.37;4298097;33;20158;-72
2022/07/26 07:01:27;;;;;;;11.60;3.30;;;;;;;23.27;100.00;98139.22;4297784;33;20075;-72
2022/07/26 07:03:53;;;;;;;3.45;3.15;;;;;;;23.04;100.00;98131.56;4320152;33;20055;-73
2022/07/26 07:06:19;;;;;;;5.55;3.30;;;;;;;23.21;100.00;98135.91;4325800;33;20049;-73
2022/07/26 07:08:48;;;;;;;6.25;3.10;;;;;;;23.22;100.00;98145.75;4337766;33;20040;-73
2022/07/26 07:11:14;;;;;;;14.40;3.45;;;;;;;23.14;100.00;98153.03;4338477;33;20359;-75
2022/07/26 07:13:40;;;;;;;16.23;3.03;;;;;;;22.95;100.00;98145.47;4340353;33;20044;-73
2022/07/26 07:16:07;;;;;;;3.70;3.05;;;;;;;22.84;100.00;98136.94;4341607;33;20482;-74
2022/07/26 07:18:33;;;;;;;7.72;2.85;;;;;;;23.06;100.00;98180.63;4339323;33;20067;-76
2022/07/26 07:21:00;;;;;;;9.35;2.85;;;;;;;22.90;100.00;98180.63;4341030;33;20037;-74
2022/07/26 07:23:27;;;;;;;5.15;3.00;;;;;;;22.70;100.00;98147.56;4341634;33;20028;-73
2022/07/26 07:25:53;;;;;;;3.40;3.03;;;;;;;22.91;100.00;98198.66;4362244;32;20065;-74
2022/07/26 07:28:19;;;;;;;4.95;3.08;;;;;;;22.46;100.00;98173.16;4391136;32;20353;-74
2022/07/26 07:30:46;;;;;;;10.00;3.30;;;;;;;22.49;100.00;98199.91;4390571;32;20076;-75
2022/07/26 07:33:13;;;;;;;7.30;3.53;;;;;;;22.55;100.00;98209.47;4393567;32;20047;-73
2022/07/26 07:35:40;;;;;;;11.43;3.35;;;;;;;22.62;100.00;98203.38;4394844;32;20102;-73
2022/07/26 07:38:07;;;;;;;13.68;2.97;;;;;;;22.67;100.00;98205.88;4393236;32;20184;-73
2022/07/26 07:40:33;;;;;;;6.60;3.58;;;;;;;22.45;100.00;98171.59;4394004;32;20205;-73
2022/07/26 07:43:00;;;;;;;6.22;4.25;;;;;;;22.64;100.00;98192.84;4421961;32;20343;-73
2022/07/26 07:45:27;;;;;;;8.23;3.17;;;;;;;22.36;100.00;98158.00;4433964;32;20050;-74
2022/07/26 07:47:53;;;;;;;4.90;3.53;;;;;;;22.45;100.00;98166.88;4433999;32;20069;-73
2022/07/26 07:50:20;;;;;;;3.60;3.03;;;;;;;22.33;100.00;98169.69;4433785;32;20054;-74
2022/07/26 07:52:46;;;;;;;5.07;3.10;;;;;;;22.61;100.00;98218.25;4431032;32;20034;-75
2022/07/26 07:55:12;;;;;;;13.07;3.50;;;;;;;22.63;100.00;98221.44;4432507;32;20048;-73
2022/07/26 07:57:39;;;;;;;10.45;4.30;;;;;;;22.18;100.00;98212.31;4433987;32;20106;-72
2022/07/26 08:00:06;;;;;;;12.65;4.32;;;;;;;22.64;100.00;98258.69;4399865;32;20451;-73
2022/07/26 08:02:37;;;;;;;4.43;3.80;;;;;;;22.58;100.00;98251.88;4400208;32;21322;-73
2022/07/26 08:05:06;;;;;;;12.55;4.30;;;;;;;22.34;100.00;98220.66;4400144;32;20039;-73
2022/07/26 08:07:33;;;;;;;11.05;4.55;;;;;;;22.31;100.00;98221.34;4400893;32;20039;-73
2022/07/26 08:09:59;;;;;;;15.88;4.93;;;;;;;22.40;100.00;98257.66;4400309;32;20038;-74
2022/07/26 08:12:26;;;;;;;14.05;4.20;;;;;;;22.14;100.00;98212.19;4400838;32;20042;-73
2022/07/26 08:14:52;;;;;;;8.95;4.30;;;;;;;21.91;100.00;98179.03;4398793;32;20049;-75
2022/07/26 08:17:18;;;;;;;6.00;4.55;;;;;;;22.26;100.00;98235.25;4400731;32;20056;-73
2022/07/26 08:19:45;;;;;;;12.02;4.60;;;;;;;22.14;100.00;98219.63;4393354;32;20117;-72
2022/07/26 08:22:11;;;;;;;9.93;4.45;;;;;;;22.23;100.00;98257.88;4394354;32;20086;-73
2022/07/26 08:24:38;;;;;;;5.00;4.37;;;;;;;21.91;100.00;98213.84;4391586;32;20095;-75
2022/07/26 08:27:05;;;;;;;5.43;4.32;;;;;;;22.05;100.00;98225.25;4391683;32;20049;-73
2022/07/26 08:29:32;;;;;;;13.88;5.32;;;;;;;22.20;100.00;98256.63;4393606;32;20031;-73
2022/07/26 08:31:58;;;;;;;14.18;4.53;;;;;;;22.28;100.00;98254.91;4390922;32;20074;-73
2022/07/26 08:34:25;;;;;;;10.98;5.20;;;;;;;22.03;100.00;98221.25;4383864;32;20077;-73
2022/07/26 08:36:51;;;;;;;14.10;5.22;;;;;;;22.05;100.00;98232.66;4387200;32;20034;-74
2022/07/26 08:39:17;;;;;;;12.00;5.18;;;;;;;21.71;100.00;98221.84;4398300;32;20028;-73
2022/07/26 08:41:44;;;;;;;9.82;4.78;;;;;;;22.19;100.00;98267.94;4400673;32;20023;-72
2022/07/26 08:44:11;;;;;;;11.73;5.25;;;;;;;22.26;100.00;98292.84;4400512;32;20075;-74
2022/07/26 08:46:39;;;;;;;11.75;5.40;;;;;;;22.04;100.00;98255.75;4400322;32;20048;-72
2022/07/26 08:49:13;;;;;;;21.45;5.32;;;;;;;22.31;100.00;98298.12;4399086;32;20180;-74
2022/07/26 08:51:42;;;;;;;9.57;5.18;;;;;;;22.40;100.00;98295.22;4399097;32;20219;-73
2022/07/26 08:54:16;;;;;;;8.77;4.72;;;;;;;22.34;100.00;98291.94;4384404;32;20406;-73
2022/07/26 08:56:51;;;;;;;7.30;4.85;;;;;;;21.90;100.00;98228.69;4384998;32;20031;-73
2022/07/26 08:59:19;;;;;;;9.10;5.30;;;;;;;22.06;100.00;98303.56;4383333;32;20064;-73
2022/07/26 09:02:04;;;;;;;8.55;4.20;;;;;;;21.97;100.00;98289.22;4384971;32;20028;-72
2022/07/26 09:04:36;;;;;;;6.35;5.32;;;;;;;22.11;100.00;98325.31;4383169;32;20035;-75
2022/07/26 09:07:14;;;;;;;7.45;4.97;;;;;;;22.17;100.00;98336.81;4377909;32;20062;-73
2022/07/26 09:10:04;;;;;;;12.80;6.18;;;;;;;22.19;100.00;98345.50;4355458;32;20124;-73
2022/07/26 09:12:31;;;;;;;18.52;6.05;;;;;;;22.13;100.00;98342.19;4358033;32;20174;-73
2022/07/26 09:14:59;;;;;;;8.63;5.55;;;;;;;22.09;100.00;98308.37;4354802;32;20073;-73
2022/07/26 09:17:40;;;;;;;7.95;5.82;;;;;;;21.86;100.00;98309.97;4359951;32;20050;-72
2022/07/26 09:20:14;;;;;;;;;;;;;;;22.17;100.00;98323.13;4357080;32;20065;-73
2022/07/26 09:23:07;;;;;;;11.35;5.80;;;;;;;22.30;100.00;98349.41;4357978;32;19939;-72
2022/07/26 09:25:36;;;;;;;16.67;7.87;;;;;;;22.23;100.00;98351.09;4366957;32;20101;-74
2022/07/26 09:28:03;;;;;;;10.90;6.75;;;;;;;22.25;100.00;98357.03;4372127;32;20024;-74
2022/07/26 09:30:32;;;;;;;11.43;5.80;;;;;;;21.98;100.00;98383.97;4377730;32;20049;-73
2022/07/26 09:33:06;;;;;;;14.80;7.28;;;;;;;21.67;100.00;98368.88;4370551;32;20047;-73
2022/07/26 09:35:39;;;;;;;12.65;6.93;;;;;;;21.39;100.00;98358.50;4372045;32;20396;-75
2022/07/26 09:38:13;;;;;;;10.98;7.32;;;;;;;21.40;100.00;98349.16;4383919;32;20070;-73
2022/07/26 09:40:39;;;;;;;9.82;6.87;;;;;;;21.55;100.00;98360.63;4412167;32;20030;-73
2022/07/26 09:43:07;;;;;;;9.75;7.32;;;;;;;21.63;100.00;98400.81;4430561;32;20041;-73
2022/07/26 09:45:35;;;;;;;11.30;8.18;;;;;;;21.55;100.00;98409.94;4430202;32;20041;-74
2022/07/26 09:48:03;;;;;;;11.20;8.27;;;;;;;21.39;100.00;98401.50;4432194;32;20353;-73
2022/07/26 09:50:32;;;;;;;18.42;8.30;;;;;;;21.39;100.00;98424.22;4414492;32;20027;-72
2022/07/26 09:52:58;;;;;;;16.00;9.20;;;;;;;21.24;100.00;98416.63;4414492;32;20054;-73
2022/07/26 09:55:24;;;;;;;12.77;9.40;;;;;;;21.31;100.00;98436.03;4413995;32;20054;-74
2022/07/26 09:58:03;;;;;;;14.02;10.32;;;;;;;21.17;100.00;98410.88;4412555;32;20127;-73
2022/07/26 10:00:30;;;;;;;13.73;10.10;;;;;;;21.01;100.00;98436.13;4414541;32;20060;-73
2022/07/26 10:02:57;;;;;;;15.32;9.75;;;;;;;20.67;100.00;98386.00;4414445;32;20022;-72
2022/07/26 10:05:24;;;;;;;10.95;9.10;;;;;;;21.12;100.00;98454.88;4412853;32;20154;-73
2022/07/26 10:07:51;;;;;;;13.48;9.40;;;;;;;21.05;100.00;98464.44;4414215;32;20072;-74
2022/07/26 10:10:31;;;;;;;17.33;10.15;;;;;;;20.88;100.00;98426.25;4414460;32;20474;-73
2022/07/26 10:13:01;;;;;;;10.73;9.38;;;;;;;20.93;100.00;98428.78;4412006;32;20108;-73
2022/07/26 10:15:39;;;;;;;10.48;8.82;;;;;;;20.99;100.00;98470.44;4413165;32;20420;-73
2022/07/26 10:18:07;;;;;;;10.82;9.07;;;;;;;20.86;100.00;98436.72;4413062;32;20061;-73
2022/07/26 10:20:44;;;;;;;15.32;9.48;;;;;;;21.11;100.00;98450.53;4415295;32;20067;-73
2022/07/26 10:23:34;;;;;;;12.80;8.95;;;;;;;21.33;100.00;98435.72;4430419;32;20042;-73
2022/07/26 10:26:01;;;;;;;14.60;10.25;;;;;;;21.12;100.00;98463.09;4430023;32;20473;-73
2022/07/26 10:28:30;;;;;;;10.63;8.77;;;;;;;20.72;100.00;98427.97;4432166;32;20071;-73
2022/07/26 10:31:18;;;;;;;13.32;9.77;;;;;;;21.00;100.00;98472.06;4428141;32;20042;-73
2022/07/26 10:33:50;;;;;;;16.30;10.50;;;;;;;20.86;100.00;98466.81;4404932;32;20102;-74
2022/07/26 10:36:25;;;;;;;16.00;9.75;;;;;;;20.72;100.00;98460.78;4407457;32;20094;-74
2022/07/26 10:39:10;;;;;;;19.60;9.30;;;;;;;20.92;100.00;98481.91;4405692;32;20060;-74
2022/07/26 10:41:43;;;;;;;9.35;7.30;;;;;;;20.81;100.00;98477.97;4387848;32;20493;-74
2022/07/26 10:44:15;;;;;;;10.20;7.72;;;;;;;20.67;100.00;98475.47;4373435;32;20065;-75
2022/07/26 10:47:20;;;;;;;8.80;7.30;;;;;;;20.60;100.00;98472.41;4378157;32;20031;-74
2022/07/26 10:49:54;;;;;;;11.00;7.15;;;;;;;20.70;100.00;98468.53;4293319;33;20174;-75
2022/07/26 10:52:29;;;;;;;9.82;7.68;;;;;;;20.64;100.00;98476.91;4295430;33;20073;-75
2022/07/26 10:54:56;;;;;;;12.65;8.23;;;;;;;20.63;100.00;98486.22;4294410;33;20055;-75
2022/07/26 10:57:37;;;;;;;13.30;8.32;;;;;;;20.83;100.00;98486.63;4293225;33;20479;-76
2022/07/26 11:00:11;;;;;;;9.45;8.18;;;;;;;20.94;100.00;98493.31;4292440;33;20087;-74
2022/07/26 11:02:38;;;;;;;15.88;9.13;;;;;;;21.07;100.00;98493.41;4297720;33;20029;-74
2022/07/26 11:05:14;;;;;;;11.12;8.00;;;;;;;20.94;100.00;98493.31;4298129;33;20075;-74
2022/07/26 11:07:56;;;;;;;14.80;8.23;;;;;;;20.79;100.00;98493.88;4297883;33;20044;-74
2022/07/26 11:10:26;;;;;;;9.20;7.70;;;;;;;20.89;100.00;98474.38;4297182;33;20038;-77
2022/07/26 11:13:09;;;;;;;14.70;9.57;;;;;;;20.91;100.00;98430.25;4275323;33;20051;-75
2022/07/26 11:15:39;;;;;;;13.13;9.57;;;;;;;21.04;100.00;98478.44;4275430;33;20067;-75
2022/07/26 11:18:10;;;;;;;18.20;8.57;;;;;;;20.90;100.00;98413.06;4275747;33;20036;-75
2022/07/26 11:20:45;;;;;;;9.38;7.85;;;;;;;21.12;100.00;98460.38;4329267;32;20515;-75
2022/07/26 11:23:39;;;;;;;12.82;8.02;;;;;;;21.35;100.00;98510.91;4355026;32;20448;-75
2022/07/26 11:26:12;;;;;;;14.73;9.00;;;;;;;21.24;100.00;98515.19;4354838;32;20048;-76
2022/07/26 11:28:53;;;;;;;10.38;7.85;;;;;;;21.14;100.00;98521.03;4356295;32;20047;-75